Shults, OK

6:48 PM CDT on August 30, 2014 (GMT -0500)
Helms Sevier County | Change Station
CLOSE
Current Station
Airport
Location: De Queen,
Elevation: 354 ft
Nearby Weather Stations

Elev 354 ft 34.05 °N, 94.40 °W | Updated 55 minutes ago

Scattered Clouds
Scattered Clouds
85 °F
Feels Like 91 °F
N
8
Wind Variable Wind from SE

Today
High -- | Low -- °F
--% Chance of Precip.
Yesterday
High -- | Low -- °F
Precip. -- in
6:51 AM 7:47 PM
Waxing Crescent, 25% visible
Pressure 29.87 in
Visibility 10.0 miles
Clouds Few 3800 ft
Scattered Clouds 4600 ft
Heat Index 91 °F
Dew Point 72 °F
Humidity 65%
Rainfall 0.00 in
Snow Depth Not available.
UV 1 out of 12
Pollen 8.70 out of 12
Air Quality Not available.
Flu Activity Not available.
METAR KDEQ 302253Z AUTO 14007KT 10SM FEW038 SCT046 29/22 A2989 RMK AO2 SLP115 T02940222 $

More Conditions Fewer Conditions

Pressure 29.87 in
Visibility 10.0 miles
Clouds Few 3800 ft
Scattered Clouds 4600 ft
Heat Index 91 °F
Dew Point 72 °F
Humidity 65%
Rainfall 0.00 in
Snow Depth Not available.
UV 1 out of 12
Pollen 8.70 out of 12
Air Quality Not available.
Flu Activity Not available.
METAR KDEQ 302253Z AUTO 14007KT 10SM FEW038 SCT046 29/22 A2989 RMK AO2 SLP115 T02940222 $

More Conditions Fewer Conditions

Nowcast | as of 5:34 PM CDT on August 30, 2014

Spotty showers...and possible isolated thunderstorms continue across portions of area this afternoon. Expect additional development especially in southeast Oklahoma...extreme northeast Texas...and south Arkansas. Rainfall amounts will be light...generally a trace to a few hundredths of an inch.

×

10-Day Weather Forecast

Almanac

Astronomy

Aug. 30, 2014 Rise Set
Actual Time 6:51 AM CDT 7:47 PM CDT
Civil Twilight 6:25 AM CDT 8:12 PM CDT
Nautical Twilight 5:55 AM CDT 8:42 PM CDT
Astronomical Twilight 5:24 AM CDT 9:14 PM CDT
Moon 11:24 AM CDT 10:37 PM CDT
Length of Visible Light 13h 47m
Length of Day
12h 55m
Tomorrow will be 2m 1s shorter.
Waxing Crescent, 25% of the Moon is Illuminated
Today
Waxing Crescent
Sep 2
First Quarter
Sep 8
Full
Sep 15
Last Quarter
Sep 24
New

Today's Extremes

State Highs State Lows

Community

WunderPhotos

Upload Photos

1,748,676 photos uploaded!

Nearby

Snow Depth

Station Depth Elevation
No new snow has been reported.

Earthquake Activity

City Distance Mag. Time & Date
No recent earthquake activity has been reported nearby.
Minimum magnitude displayed is 2.5.

Coastal Water Temperatures

Place Temperature
No Stations Reporting

Nearby Weather Stations